Greeneville, TN (37743)

9:51 PM EDT on August 29, 2016 (GMT -0400)
| | Change Station

Elev -9999 ft 0.00 °N, 0.00 °E | Updated

Clear
Clear
72 °F
Feels Like 72 °F
N
1
Wind Variable Wind from ENE
Gusts mph

Today
High -- | Low -- °F
--% Chance of Precip.
Yesterday
High -- | Low -- °F
Precip. -- in
Pressure 30.08 in
Visibility 10.0 miles
Clouds Scattered Clouds 5500 ft
Scattered Clouds 12000 ft
Mostly Cloudy 25000 ft
Dew Point 67 °F
Humidity 83%
Rainfall --
Snow Depth Not available.
7:01 AM 8:02 PM
Waning Crescent, 6% visible
METAR KTRI 300053Z 00000KT 10SM SCT055 SCT120 BKN250 26/19 A3015 RMK AO2 TSE19 SLP184 T02610189
Pressure 30.08 in
Visibility 10.0 miles
Clouds Scattered Clouds 5500 ft
Scattered Clouds 12000 ft
Mostly Cloudy 25000 ft
Dew Point 67 °F
Humidity 83%
Rainfall --
Snow Depth Not available.
7:01 AM 8:02 PM
Waning Crescent, 6% visible
METAR KTRI 300053Z 00000KT 10SM SCT055 SCT120 BKN250 26/19 A3015 RMK AO2 TSE19 SLP184 T02610189

10-Day Weather Forecast

Almanac

Astronomy

Aug. 29, 2016 Rise Set
Actual Time
Civil Twilight
Nautical Twilight
Astronomical Twilight
Moon
Length of Visible Light
Length of Day
Tomorrow will be .
, % of the Moon is Illuminated

Today's Extremes

State Highs State Lows

Community

WunderPhotos

Upload Photos

1,935,715 photos uploaded!

WunderBlog® & News

Nearby

Air Quality

  Air Quality AQ Index Pollutant
Not available.

Snow Depth

Station Depth Elevation

Earthquake Activity

City Distance Mag. Time & Date
Minimum magnitude displayed is 2.5.

Coastal Water Temperatures

Place Temperature

Stations

Nearby Weather Stations

Station Location Temp. Windchill Dew Point Humidity Wind Precip. Elev Updated Type
                   

Watches & Warnings

There are currently no watches in effect.